PWSweather.com
Personal Weather Stations
Station Observations
CALONGE
CalongeES 17251

CalongeES 17251

Lat: 41.85972222, Lon: 3.077777778

Elevation: 16

Station Type: Oregon WMR928N

Latest ConditionsUpdated 12:45:00 PM GMT+01:01 Friday, Apr 19, 2019
Currently Today's Max Today's Min Today's Average
Temperature 66.6°F19.2°C 66.6°F19.2°C 55.0°F12.8°C 58.9°F14.9°C
Dew Point 45.7°F7.6°C 51.2°F10.7°C 44.4°F6.9°C 47.3°F8.5°C
Winds 12.0 mph NE19.3 kmh NE 14.9 mph -24.0 kmh - - 5.8 mph 9.3 kmh
Wind Gusts 10.8 mph17.4 kmh 19.6 mph31.5 kmh - -
Humidity 47% 79% 47% 66%
Pressure 30.21 in1023.0 mb 30.24 in1024.0 mb 30.12 in1020.0 mb -
Hour Temp Dew Point Humidity Winds Wind Gusts Pressure Precip Precip Rate Daily Precip Total
12:45 PM 66.6°F19.2°C 45.7°F7.6°C 47% 12.0 mph NE19.3 kmh NE 10.8 mph17.4 kmh 30.21 in1023.0 mb 0.00 in0.0 mm 0.00 in0.0 mm 0.00 in0.0 mm
12:30 PM 66.2°F19.0°C 45.9°F7.7°C 48% 8.8 mph ENE14.2 kmh ENE 14.4 mph23.2 kmh 30.21 in1023.0 mb 0.00 in0.0 mm 0.00 in0.0 mm 0.00 in0.0 mm
12:15 PM 65.8°F18.8°C 46.1°F7.8°C 49% 6.4 mph NE10.3 kmh NE 16.7 mph26.9 kmh 30.24 in1024.0 mb 0.00 in0.0 mm 0.00 in0.0 mm 0.00 in0.0 mm
12:00 PM 65.5°F18.6°C 45.3°F7.4°C 48% 9.4 mph NE15.1 kmh NE 17.3 mph27.8 kmh 30.24 in1024.0 mb 0.00 in0.0 mm 0.00 in0.0 mm 0.00 in0.0 mm
11:45 AM 65.7°F18.7°C 45.4°F7.4°C 48% 11.4 mph NE18.3 kmh NE 14.4 mph23.2 kmh 30.21 in1023.0 mb 0.00 in0.0 mm 0.00 in0.0 mm 0.00 in0.0 mm
11:30 AM 65.5°F18.6°C 44.7°F7.1°C 47% 10.5 mph ENE16.9 kmh ENE 19.0 mph30.6 kmh 30.21 in1023.0 mb 0.00 in0.0 mm 0.00 in0.0 mm 0.00 in0.0 mm
11:15 AM 65.7°F18.7°C 44.9°F7.2°C 47% 14.9 mph ENE24.0 kmh ENE 19.6 mph31.5 kmh 30.21 in1023.0 mb 0.00 in0.0 mm 0.00 in0.0 mm 0.00 in0.0 mm
11:00 AM 66.0°F18.9°C 46.3°F7.9°C 49% 9.4 mph ENE15.1 kmh ENE 11.4 mph18.3 kmh 30.21 in1023.0 mb 0.00 in0.0 mm 0.00 in0.0 mm 0.00 in0.0 mm
10:45 AM 65.5°F18.6°C 47.4°F8.6°C 52% 7.0 mph NE11.3 kmh NE 8.2 mph13.2 kmh 30.21 in1023.0 mb 0.00 in0.0 mm 0.00 in0.0 mm 0.00 in0.0 mm
10:30 AM 64.8°F18.2°C 47.7°F8.7°C 54% 10.8 mph NE17.4 kmh NE 13.2 mph21.2 kmh 30.21 in1023.0 mb 0.00 in0.0 mm 0.00 in0.0 mm 0.00 in0.0 mm
10:15 AM 63.9°F17.7°C 47.4°F8.6°C 55% 7.6 mph NE12.2 kmh NE 8.2 mph13.2 kmh 30.21 in1023.0 mb 0.00 in0.0 mm 0.00 in0.0 mm 0.00 in0.0 mm
10:00 AM 63.0°F17.2°C 47.0°F8.3°C 56% 7.6 mph NNE12.2 kmh NNE 12.6 mph20.3 kmh 30.21 in1023.0 mb 0.00 in0.0 mm 0.00 in0.0 mm 0.00 in0.0 mm
09:45 AM 62.4°F16.9°C 47.9°F8.8°C 59% 7.6 mph NE12.2 kmh NE 12.6 mph20.3 kmh 30.21 in1023.0 mb 0.00 in0.0 mm 0.00 in0.0 mm 0.00 in0.0 mm
09:30 AM 61.9°F16.6°C 49.1°F9.5°C 63% 7.6 mph NNE12.2 kmh NNE 10.8 mph17.4 kmh 30.21 in1023.0 mb 0.00 in0.0 mm 0.00 in0.0 mm 0.00 in0.0 mm
09:15 AM 60.6°F15.9°C 51.2°F10.7°C 71% 3.5 mph NNE5.6 kmh NNE 6.4 mph10.3 kmh 30.18 in1022.0 mb 0.00 in0.0 mm 0.00 in0.0 mm 0.00 in0.0 mm
09:00 AM 59.9°F15.5°C 50.8°F10.4°C 72% 2.9 mph N4.7 kmh N 7.0 mph11.3 kmh 30.18 in1022.0 mb 0.00 in0.0 mm 0.00 in0.0 mm 0.00 in0.0 mm
08:45 AM 59.2°F15.1°C 50.5°F10.3°C 73% 5.3 mph N8.5 kmh N 8.2 mph13.2 kmh 30.18 in1022.0 mb 0.00 in0.0 mm 0.00 in0.0 mm 0.00 in0.0 mm
08:30 AM 58.6°F14.8°C 50.4°F10.2°C 74% 7.0 mph N11.3 kmh N 8.2 mph13.2 kmh 30.18 in1022.0 mb 0.00 in0.0 mm 0.00 in0.0 mm 0.00 in0.0 mm
08:15 AM 57.9°F14.4°C 50.4°F10.2°C 76% Calm Calm 7.6 mph12.2 kmh 30.18 in1022.0 mb 0.00 in0.0 mm 0.00 in0.0 mm 0.00 in0.0 mm
08:00 AM 57.2°F14.0°C 50.1°F10.1°C 77% 2.9 mph NW4.7 kmh NW 10.8 mph17.4 kmh 30.18 in1022.0 mb 0.00 in0.0 mm 0.00 in0.0 mm 0.00 in0.0 mm
07:45 AM 56.7°F13.7°C 49.9°F9.9°C 78% 4.7 mph NW7.6 kmh NW 7.0 mph11.3 kmh 30.18 in1022.0 mb 0.00 in0.0 mm 0.00 in0.0 mm 0.00 in0.0 mm
07:30 AM 56.3°F13.5°C 49.9°F9.9°C 79% 5.9 mph NW9.5 kmh NW 7.6 mph12.2 kmh 30.18 in1022.0 mb 0.00 in0.0 mm 0.00 in0.0 mm 0.00 in0.0 mm
07:15 AM 55.8°F13.2°C 49.3°F9.6°C 79% 5.3 mph NW8.5 kmh NW 9.4 mph15.1 kmh 30.15 in1021.0 mb 0.00 in0.0 mm 0.00 in0.0 mm 0.00 in0.0 mm
07:00 AM 55.6°F13.1°C 49.2°F9.6°C 79% 7.6 mph NW12.2 kmh NW 8.2 mph13.2 kmh 30.15 in1021.0 mb 0.00 in0.0 mm 0.00 in0.0 mm 0.00 in0.0 mm
06:45 AM 55.2°F12.9°C 48.8°F9.3°C 79% 4.1 mph WNW6.6 kmh WNW 7.6 mph12.2 kmh 30.15 in1021.0 mb 0.00 in0.0 mm 0.00 in0.0 mm 0.00 in0.0 mm
06:30 AM 55.0°F12.8°C 48.0°F8.9°C 77% 7.0 mph NW11.3 kmh NW 10.5 mph16.9 kmh 30.15 in1021.0 mb 0.00 in0.0 mm 0.00 in0.0 mm 0.00 in0.0 mm
06:15 AM 55.0°F12.8°C 47.3°F8.5°C 75% 7.6 mph NW12.2 kmh NW 10.8 mph17.4 kmh 30.15 in1021.0 mb 0.00 in0.0 mm 0.00 in0.0 mm 0.00 in0.0 mm
06:00 AM 55.4°F13.0°C 47.2°F8.4°C 74% 5.3 mph NW8.5 kmh NW 7.0 mph11.3 kmh 30.15 in1021.0 mb 0.00 in0.0 mm 0.00 in0.0 mm 0.00 in0.0 mm
05:45 AM 55.6°F13.1°C 47.8°F8.8°C 75% Calm Calm -- 30.12 in1020.0 mb 0.00 in0.0 mm 0.00 in0.0 mm 0.00 in0.0 mm
05:30 AM 55.8°F13.2°C 47.2°F8.4°C 73% Calm Calm 7.0 mph11.3 kmh 30.12 in1020.0 mb 0.00 in0.0 mm 0.00 in0.0 mm 0.00 in0.0 mm
05:15 AM 56.1°F13.4°C 47.2°F8.4°C 72% Calm Calm 5.3 mph8.5 kmh 30.12 in1020.0 mb 0.00 in0.0 mm 0.00 in0.0 mm 0.00 in0.0 mm
05:00 AM 56.5°F13.6°C 47.2°F8.4°C 71% 4.7 mph W7.6 kmh W 5.3 mph8.5 kmh 30.12 in1020.0 mb 0.00 in0.0 mm 0.00 in0.0 mm 0.00 in0.0 mm
04:45 AM 56.8°F13.8°C 47.2°F8.4°C 70% 3.5 mph NW5.6 kmh NW 5.3 mph8.5 kmh 30.12 in1020.0 mb 0.00 in0.0 mm 0.00 in0.0 mm 0.00 in0.0 mm
04:30 AM 56.8°F13.8°C 47.2°F8.4°C 70% 5.9 mph NW9.5 kmh NW 8.8 mph14.2 kmh 30.12 in1020.0 mb 0.00 in0.0 mm 0.00 in0.0 mm 0.00 in0.0 mm
04:15 AM 56.1°F13.4°C 45.3°F7.4°C 67% 3.5 mph NNW5.6 kmh NNW 6.4 mph10.3 kmh 30.12 in1020.0 mb 0.00 in0.0 mm 0.00 in0.0 mm 0.00 in0.0 mm
04:00 AM 55.8°F13.2°C 45.0°F7.2°C 67% 3.5 mph NNW5.6 kmh NNW 8.2 mph13.2 kmh 30.12 in1020.0 mb 0.00 in0.0 mm 0.00 in0.0 mm 0.00 in0.0 mm
03:45 AM 55.6°F13.1°C 44.4°F6.9°C 66% 4.1 mph 6.6 kmh -- 30.12 in1020.0 mb 0.00 in0.0 mm 0.00 in0.0 mm 0.00 in0.0 mm
03:30 AM 55.8°F13.2°C 44.6°F7.0°C 66% 3.5 mph NW5.6 kmh NW 5.3 mph8.5 kmh 30.12 in1020.0 mb 0.00 in0.0 mm 0.00 in0.0 mm 0.00 in0.0 mm
03:15 AM 55.8°F13.2°C 45.0°F7.2°C 67% 4.1 mph NW6.6 kmh NW 7.6 mph12.2 kmh 30.12 in1020.0 mb 0.00 in0.0 mm 0.00 in0.0 mm 0.00 in0.0 mm
03:00 AM 55.9°F13.3°C 44.7°F7.1°C 66% 7.0 mph WNW11.3 kmh WNW 8.2 mph13.2 kmh 30.12 in1020.0 mb 0.00 in0.0 mm 0.00 in0.0 mm 0.00 in0.0 mm
02:45 AM 56.1°F13.4°C 44.9°F7.2°C 66% 7.6 mph NW12.2 kmh NW 10.5 mph16.9 kmh 30.12 in1020.0 mb 0.00 in0.0 mm 0.00 in0.0 mm 0.00 in0.0 mm
02:30 AM 56.1°F13.4°C 44.9°F7.2°C 66% 6.4 mph NNW10.3 kmh NNW 10.8 mph17.4 kmh 30.12 in1020.0 mb 0.00 in0.0 mm 0.00 in0.0 mm 0.00 in0.0 mm
02:15 AM 56.3°F13.5°C 45.9°F7.7°C 68% 7.6 mph NW12.2 kmh NW 10.8 mph17.4 kmh 30.12 in1020.0 mb 0.00 in0.0 mm 0.00 in0.0 mm 0.00 in0.0 mm
02:00 AM 56.3°F13.5°C 47.0°F8.3°C 71% 7.0 mph NNW11.3 kmh NNW 7.0 mph11.3 kmh 30.12 in1020.0 mb 0.00 in0.0 mm 0.00 in0.0 mm 0.00 in0.0 mm
01:45 AM 56.3°F13.5°C 47.4°F8.6°C 72% 7.6 mph NW12.2 kmh NW 8.2 mph13.2 kmh 30.12 in1020.0 mb 0.00 in0.0 mm 0.00 in0.0 mm 0.00 in0.0 mm
01:30 AM 56.5°F13.6°C 47.6°F8.7°C 72% 5.3 mph NW8.5 kmh NW 9.4 mph15.1 kmh 30.12 in1020.0 mb 0.00 in0.0 mm 0.00 in0.0 mm 0.00 in0.0 mm
01:15 AM 56.8°F13.8°C 47.9°F8.8°C 72% 6.4 mph NNW10.3 kmh NNW 8.2 mph13.2 kmh 30.12 in1020.0 mb 0.00 in0.0 mm 0.00 in0.0 mm 0.00 in0.0 mm
01:00 AM 57.0°F13.9°C 48.1°F8.9°C 72% 3.5 mph N5.6 kmh N 10.0 mph16.1 kmh 30.12 in1020.0 mb 0.00 in0.0 mm 0.00 in0.0 mm 0.00 in0.0 mm
12:45 AM 57.7°F14.3°C 48.0°F8.9°C 70% 2.9 mph NW4.7 kmh NW 8.2 mph13.2 kmh 30.12 in1020.0 mb 0.00 in0.0 mm 0.00 in0.0 mm 0.00 in0.0 mm
12:30 AM 57.9°F14.4°C 47.0°F8.3°C 67% 3.5 mph N5.6 kmh N 4.1 mph6.6 kmh 30.12 in1020.0 mb 0.00 in0.0 mm 0.00 in0.0 mm 0.00 in0.0 mm
12:15 AM 57.6°F14.2°C 47.8°F8.8°C 70% Calm Calm 10.5 mph16.9 kmh 30.12 in1020.0 mb 0.00 in0.0 mm 0.00 in0.0 mm 0.00 in0.0 mm
12:00 AM 57.4°F14.1°C 48.4°F9.1°C 72% 4.7 mph NNW7.6 kmh NNW 10.5 mph16.9 kmh 30.12 in1020.0 mb 0.00 in0.0 mm 0.00 in0.0 mm 0.00 in0.0 mm